Latest Weather Observations for Coonabarabran Airport

IDN60801

Issued at 4:35 pm EDT Saturday 29 November 2014 (issued every 30 minutes, with the page automatically refreshed every 10 minutes)

About weather observations | Map of weather stations | Latest weather observations for NSW | Other Formats
Station Details ID: 064017 Name: COONABARABRAN AIRPORT AWS Lat: -31.33 Lon: 149.27 Height: 645.0 m
Data from the previous 72 hours. | See also: Recent months for locations in New South Wales
Date/Time
EDT
Temp
°C
App
Temp
°C
Dew
Point
Rel
Hum
%
Delta-T
°C
Wind Press
QNH
hPa
Press
MSL
hPa
Rain
since 9 am
mm
Dir
 
Spd
km/h
Gust
km/h
Spd
kts
Gust
kts
29/04:30pm 21.8 18.5 13.9 61 4.7 ENE 24 30 13 16 1015.2 1012.3 4.0
29/04:00pm 18.9 16.8 15.2 79 2.2 ENE 20 26 11 14 1015.9 1012.9 4.0
29/03:30pm 19.4 18.7 14.4 73 3.0 ENE 11 13 6 7 1017.2 1014.3 1.6
29/03:00pm 23.4 21.0 11.5 47 6.9 S 15 20 8 11 1017.1 1014.2 0.0
29/02:30pm 24.4 21.0 11.4 44 7.5 ESE 20 28 11 15 1016.7 1013.8 0.0
29/02:00pm 26.9 25.5 11.0 37 9.3 NW 9 20 5 11 1016.9 1014.0 0.0
29/01:30pm 25.9 23.1 10.1 37 9.0 N 15 20 8 11 1017.5 1014.5 0.0
29/01:00pm 26.1 23.2 11.1 39 8.7 N 17 26 9 14 1017.9 1015.0 0.0
29/12:30pm 26.5 23.0 11.0 38 9.0 NNW 20 28 11 15 1018.4 1015.5 0.0
29/12:00pm 25.9 22.7 11.3 40 8.5 N 19 32 10 17 1018.9 1016.1 0.0
29/11:30am 25.3 22.2 11.5 42 8.0 N 19 30 10 16 1019.4 1016.5 0.0
29/11:00am 24.3 20.7 11.9 45 7.2 N 22 26 12 14 1019.6 1016.7 0.0
29/10:30am 23.5 19.7 12.5 50 6.5 N 24 41 13 22 1019.7 1016.8 0.0
29/10:00am 23.5 19.4 12.8 51 6.3 N 26 37 14 20 1019.7 1016.8 0.0
29/09:30am 22.1 18.4 11.5 51 6.1 NNW 22 30 12 16 1020.0 1017.1 0.0
29/09:00am 21.6 16.9 11.9 54 5.6 N 28 37 15 20 1020.2 1017.3 0.0
29/08:30am 20.2 15.9 11.9 59 4.8 N 26 37 14 20 1020.2 1017.3 0.0
29/08:00am 18.7 14.5 12.5 67 3.6 N 26 37 14 20 1020.0 1017.1 0.0
29/07:30am 17.9 13.7 12.4 70 3.1 N 26 35 14 19 1019.7 1016.8 0.0
29/07:00am 17.4 14.5 12.3 72 2.9 N 19 26 10 14 1019.8 1016.9 0.0
29/06:30am 16.8 13.8 11.9 73 2.8 N 19 24 10 13 1019.4 1016.5 0.0
29/06:00am 16.6 13.9 11.7 73 2.7 N 17 22 9 12 1019.4 1016.5 0.0
29/05:30am 16.1 13.7 11.3 73 2.7 N 15 19 8 10 1019.3 1016.4 0.0
29/05:00am 16.2 14.5 11.2 72 2.8 N 11 15 6 8 1019.0 1016.2 0.0
29/04:30am 16.7 14.6 11.2 70 3.1 N 13 20 7 11 1018.7 1015.8 0.0
29/04:00am 16.9 14.4 11.2 69 3.2 N 15 20 8 11 1018.6 1015.7 0.0
29/03:30am 17.2 14.0 11.2 68 3.3 N 19 24 10 13 1018.6 1015.7 0.0
29/03:00am 17.6 14.8 11.2 66 3.6 NNE 17 22 9 12 1018.9 1016.1 0.0
29/02:30am 18.0 14.6 11.3 65 3.8 NNE 20 28 11 15 1018.9 1016.1 0.0
29/02:00am 18.4 14.7 11.5 64 3.9 NNE 22 28 12 15 1018.9 1016.1 0.0
29/01:30am 18.5 16.1 11.3 63 4.1 NE 15 20 8 11 1019.3 1016.4 0.0
29/01:00am 18.9 15.7 11.2 61 4.3 NE 19 24 10 13 1019.5 1016.6 0.0
29/12:30am 19.0 15.6 11.1 60 4.4 ENE 20 28 11 15 1019.5 1016.6 0.0
29/12:00am 18.9 15.4 11.0 60 4.4 ENE 20 28 11 15 1019.4 1016.5 0.0
 
Date/Time
EDT
Temp
°C
App
Temp
°C
Dew
Point
Rel
Hum
%
Delta-T
°C
Wind Press
QNH
hPa
Press
MSL
hPa
Rain
since 9 am
mm
Dir
 
Spd
km/h
Gust
km/h
Spd
kts
Gust
kts
28/11:30pm 19.3 15.6 10.0 55 5.1 ENE 20 30 11 16 1019.4 1016.5 0.0
28/11:00pm 19.9 15.5 8.9 49 6.0 ENE 22 28 12 15 1019.4 1016.5 0.0
28/10:30pm 20.1 16.2 9.4 50 5.9 ENE 20 30 11 16 1019.4 1016.5 0.0
28/10:00pm 20.4 16.9 8.7 47 6.3 E 17 20 9 11 1018.9 1016.1 0.0
28/09:30pm 21.2 18.4 8.5 44 6.9 ESE 13 17 7 9 1018.7 1015.8 0.0
28/09:00pm 21.9 18.7 8.4 42 7.3 ESE 15 20 8 11 1018.4 1015.5 0.0
28/08:30pm 22.9 19.0 8.6 40 7.8 SE 19 26 10 14 1018.0 1015.1 0.0
28/08:00pm 23.8 19.8 8.2 37 8.5 SE 19 26 10 14 1017.7 1014.8 0.0
28/07:30pm 24.9 19.9 8.0 34 9.3 SSE 24 32 13 17 1017.2 1014.3 0.0
28/07:00pm 26.7 22.7 6.7 28 10.8 SE 17 22 9 12 1016.9 1014.0 0.0
28/06:30pm 26.8 22.1 6.2 27 11.1 SSE 20 28 11 15 1016.8 1013.9 0.0
28/06:00pm 27.9 25.6 5.5 24 12.0 SSE 7 11 4 6 1016.7 1013.8 0.0
28/05:30pm 27.3 24.2 5.6 25 11.6 SSE 11 15 6 8 1016.8 1013.9 0.0
28/05:00pm 28.4 24.9 5.3 23 12.3 S 13 20 7 11 1016.9 1014.0 0.0
28/04:30pm 29.2 26.7 6.6 24 12.4 SE 9 15 5 8 1017.2 1014.3 0.0
28/04:00pm 28.1 25.0 5.6 24 12.0 SW 11 17 6 9 1017.7 1014.8 0.0
28/03:30pm 28.5 26.1 7.1 26 11.8 N 9 17 5 9 1018.0 1015.1 0.0
28/03:00pm 27.3 25.2 6.7 27 11.2 S 7 13 4 7 1018.4 1015.5 0.0
28/02:30pm 27.9 24.6 6.6 26 11.6 SE 13 20 7 11 1018.9 1016.1 0.0
28/02:00pm 26.5 22.2 7.0 29 10.6 ENE 19 22 10 12 1019.4 1016.5 0.0
28/01:30pm 27.0 24.9 8.4 31 10.4 N 9 13 5 7 1019.7 1016.8 0.0
28/01:00pm 26.6 23.7 8.1 31 10.2 ENE 13 22 7 12 1020.3 1017.5 0.0
28/12:30pm 26.0 24.2 9.4 35 9.4 NNE 9 20 5 11 1020.6 1017.8 0.0
28/12:00pm 25.8 23.0 10.0 37 9.0 ENE 15 26 8 14 1021.2 1018.3 0.0
28/11:30am 24.6 21.9 10.5 41 8.1 NE 15 28 8 15 1021.4 1018.5 0.0
28/11:00am 23.3 20.5 10.0 43 7.5 NE 15 24 8 13 1021.5 1018.6 0.0
28/10:30am 22.6 19.1 10.1 45 7.0 NNE 19 24 10 13 1021.7 1018.9 0.0
28/10:00am 22.3 18.9 11.1 49 6.4 ENE 20 30 11 16 1021.7 1018.9 0.0
28/09:30am 21.7 17.9 11.1 51 6.0 ENE 22 30 12 16 1021.8 1019.0 0.0
28/09:00am 20.6 17.9 11.8 57 5.0 ENE 17 32 9 17 1021.9 1019.1 0.0
28/08:30am 18.9 15.9 11.9 64 4.0 E 19 24 10 13 1021.9 1019.1 0.0
28/08:00am 17.1 14.1 11.8 71 3.0 E 19 24 10 13 1021.9 1019.1 0.0
28/07:30am 16.1 13.1 12.1 77 2.3 E 19 24 10 13 1021.5 1018.6 0.0
28/07:00am 14.7 13.7 12.2 85 1.4 SSE 9 17 5 9 1021.3 1018.4 0.0
28/06:30am 13.8 13.2 12.4 91 0.8 SSE 7 15 4 8 1021.0 1018.1 0.0
28/06:00am 12.6 11.4 11.7 94 0.5 SSE 9 13 5 7 1020.8 1017.9 0.0
28/05:30am 12.5 11.4 11.9 96 0.3 SSW 9 13 5 7 1020.6 1017.8 0.0
28/05:00am 13.1 12.1 12.2 94 0.5 S 9 15 5 8 1020.2 1017.3 0.0
28/04:30am 12.7 11.6 11.9 95 0.4 S 9 13 5 7 1020.1 1017.2 0.0
28/04:00am 12.9 11.5 12.1 95 0.4 S 11 13 6 7 1019.9 1017.0 0.0
28/03:30am 13.2 11.4 12.1 93 0.6 SSE 13 17 7 9 1019.9 1017.0 0.0
28/03:00am 13.7 12.4 12.4 92 0.7 SSE 11 19 6 10 1020.1 1017.2 0.0
28/02:30am 13.8 12.1 12.4 91 0.8 SSE 13 17 7 9 1020.2 1017.3 0.0
28/02:00am 14.3 12.7 11.6 84 1.5 SE 11 20 6 11 1020.4 1017.6 0.0
28/01:30am 15.1 12.5 12.1 82 1.7 ESE 17 26 9 14 1020.6 1017.8 0.0
28/01:00am 15.5 12.6 12.4 82 1.7 ESE 19 28 10 15 1021.0 1018.1 0.0
28/12:30am 15.7 12.7 12.5 81 1.8 E 20 28 11 15 1021.1 1018.2 0.0
28/12:00am 16.1 12.7 12.5 79 2.0 E 22 33 12 18 1021.1 1018.2 0.0
 
Date/Time
EDT
Temp
°C
App
Temp
°C
Dew
Point
Rel
Hum
%
Delta-T
°C
Wind Press
QNH
hPa
Press
MSL
hPa
Rain
since 9 am
mm
Dir
 
Spd
km/h
Gust
km/h
Spd
kts
Gust
kts
27/11:30pm 16.5 13.1 12.5 77 2.3 E 22 33 12 18 1021.1 1018.2 0.0
27/11:00pm 17.0 12.8 12.3 74 2.7 E 26 39 14 21 1020.9 1018.0 0.0
27/10:30pm 17.6 12.6 12.1 70 3.1 E 30 39 16 21 1020.6 1017.8 0.0
27/10:00pm 18.4 13.9 11.5 64 3.9 E 26 35 14 19 1020.4 1017.6 0.0
27/09:30pm 19.1 15.7 11.2 60 4.5 E 20 28 11 15 1020.1 1017.2 0.0
27/09:00pm 20.0 16.8 11.2 57 5.0 E 19 24 10 13 1019.5 1016.6 0.0
27/08:30pm 20.8 17.4 10.6 52 5.7 SE 19 24 10 13 1019.2 1016.3 0.0
27/08:00pm 21.9 18.4 10.1 47 6.6 SSE 19 24 10 13 1018.8 1015.9 0.0
27/07:30pm 23.4 18.8 9.8 42 7.6 SE 24 33 13 18 1018.4 1015.5 0.0
27/07:00pm 24.6 19.5 9.3 38 8.6 SE 26 32 14 17 1018.2 1015.3 0.0
27/06:30pm 25.3 19.8 9.2 36 9.0 SE 28 39 15 21 1017.9 1015.0 0.0
27/06:00pm 26.5 20.9 8.9 33 9.9 SSE 28 37 15 20 1017.3 1014.4 0.0
27/05:30pm 27.6 21.9 8.5 30 10.7 SSE 28 44 15 24 1017.0 1014.1 0.0
27/05:00pm 28.5 24.0 8.7 29 11.2 SE 22 32 12 17 1016.8 1013.9 0.0
27/04:30pm 27.6 23.6 9.0 31 10.5 SE 20 26 11 14 1016.9 1014.0 0.0
27/04:00pm 27.9 23.9 9.2 31 10.6 SE 20 30 11 16 1016.9 1014.0 0.0
27/03:30pm 29.6 25.6 8.1 26 12.1 S 19 28 10 15 1017.0 1014.1 0.0
27/03:00pm 28.0 23.6 7.3 27 11.4 ESE 20 28 11 15 1017.2 1014.3 0.0
27/02:30pm 29.5 27.3 8.0 26 12.1 SE 9 22 5 12 1017.5 1014.5 0.0
27/02:00pm 29.2 24.6 8.3 27 11.8 E 22 35 12 19 1017.9 1015.0 0.0
27/01:30pm 26.9 23.6 7.9 30 10.5 SE 15 24 8 13 1018.1 1015.2 0.0
27/01:00pm 27.3 24.5 8.7 31 10.4 S 13 20 7 11 1018.3 1015.4 0.0
27/12:30pm 27.9 24.9 9.2 31 10.6 SSE 15 20 8 11 1018.6 1015.7 0.0
27/12:00pm 25.6 22.7 8.1 33 9.6 S 13 26 7 14 1018.9 1016.1 0.0
27/11:30am 26.4 25.0 10.9 38 9.0 SSE 9 15 5 8 1019.2 1016.3 0.0
27/11:00am 25.4 23.6 10.8 40 8.4 SSE 11 19 6 10 1019.4 1016.5 0.0
27/10:30am 24.3 22.0 11.9 45 7.2 ESE 15 22 8 12 1019.5 1016.6 0.0
27/10:00am 23.3 22.1 12.9 52 6.1 ENE 11 19 6 10 1019.6 1016.7 0.0
27/09:30am 22.2 20.6 12.7 55 5.6 SSE 13 19 7 10 1019.7 1016.8 0.0
27/09:00am 21.0 20.2 13.9 64 4.2 S 11 15 6 8 1019.8 1016.9 0.0
27/08:30am 19.9 18.9 14.5 71 3.2 S 13 19 7 10 1019.8 1016.9 0.0
27/08:00am 18.8 17.3 14.3 75 2.7 S 15 19 8 10 1019.4 1016.5 0.0
27/07:30am 18.0 16.8 13.9 77 2.4 SSW 13 17 7 9 1019.2 1016.3 0.0
27/07:00am 17.1 15.6 13.2 78 2.3 SSW 13 17 7 9 1018.8 1015.9 0.0
27/06:30am 16.2 14.6 12.7 80 2.0 SSW 13 17 7 9 1018.4 1015.5 0.0
27/06:00am 15.4 13.6 12.0 80 1.9 SSW 13 15 7 8 1018.1 1015.2 0.0
27/05:30am 15.6 13.3 10.6 72 2.7 SSW 13 15 7 8 1017.8 1014.9 0.0
27/05:00am 15.9 12.9 9.3 65 3.5 SSW 15 20 8 11 1017.5 1014.5 0.0
27/04:30am 16.3 12.6 6.2 51 5.1 SSW 15 19 8 10 1017.1 1014.2 0.0
27/04:00am 16.7 12.5 3.7 42 6.2 SSW 15 19 8 10 1016.9 1014.0 0.0
27/03:30am 16.6 12.2 0.3 33 7.3 SSW 13 17 7 9 1016.8 1013.9 0.0
27/03:00am 17.0 12.4 -0.7 30 7.8 SSW 13 17 7 9 1016.9 1014.0 0.0
27/02:30am 17.9 13.0 -0.8 28 8.3 SSW 15 19 8 10 1017.0 1014.1 0.0
27/02:00am 18.3 13.7 -1.0 27 8.5 SSW 13 20 7 11 1017.3 1014.4 0.0
27/01:30am 18.6 14.0 -1.3 26 8.8 SSW 13 20 7 11 1017.7 1014.8 0.0
27/01:00am 19.5 14.1 -1.6 24 9.3 SSW 17 22 9 12 1018.1 1015.2 0.0
27/12:30am 19.9 14.4 -1.8 23 9.6 SSW 17 24 9 13 1018.5 1015.6 0.0
27/12:00am 20.0 14.5 -2.3 22 9.7 SSW 17 26 9 14 1018.7 1015.8 0.0
 
Date/Time
EDT
Temp
°C
App
Temp
°C
Dew
Point
Rel
Hum
%
Delta-T
°C
Wind Press
QNH
hPa
Press
MSL
hPa
Rain
since 9 am
mm
Dir
 
Spd
km/h
Gust
km/h
Spd
kts
Gust
kts
26/11:30pm 20.3 14.3 -2.7 21 10.0 SSW 19 28 10 15 1018.8 1015.9 0.0
26/11:00pm 21.2 14.6 -3.3 19 10.6 SW 22 28 12 15 1018.8 1015.9 0.0
26/10:30pm 21.2 15.0 -3.3 19 10.6 SW 20 28 11 15 1018.7 1015.8 0.0
26/10:00pm 21.8 15.6 -3.5 18 11.0 SW 20 28 11 15 1018.5 1015.6 0.0
26/09:30pm 22.0 15.8 -3.4 18 11.1 SW 20 26 11 14 1018.2 1015.3 0.0
26/09:00pm 22.3 16.8 -2.4 19 11.0 SW 17 22 9 12 1017.8 1014.9 0.0
26/08:30pm 23.3 17.5 -1.6 19 11.3 SW 19 26 10 14 1017.5 1014.5 0.0
26/08:00pm 24.0 18.3 -1.0 19 11.6 SW 19 22 10 12 1017.2 1014.3 0.0
26/07:30pm 25.5 19.9 0.2 19 12.1 SW 19 30 10 16 1017.0 1014.1 0.0
26/07:00pm 26.9 21.9 1.3 19 12.6 WSW 17 24 9 13 1016.6 1013.7 0.0
26/06:30pm 27.5 21.6 -0.5 16 13.4 SW 20 28 11 15 1016.3 1013.4 0.0
26/06:00pm 28.1 21.4 -0.9 15 13.9 SW 24 32 13 17 1016.1 1013.1 0.0
26/05:30pm 29.0 21.8 -2.2 13 14.7 SW 26 37 14 20 1015.9 1012.9 0.0
26/05:00pm 29.4 23.9 -1.9 13 14.8 WSW 17 24 9 13 1015.7 1012.8 0.0

Other Formats:

Comma delimited format used in spreadsheet applications
http://www.bom.gov.au/fwo/IDN60801/IDN60801.95728.axf

JavaScript Object Notation format (JSON) in row-major order
http://www.bom.gov.au/fwo/IDN60801/IDN60801.95728.json